KR-0339 weather

Haeundae Hillstate We’ve Apartments Heliports
Haeundae (Busan), Busan Gwang'yeogsi, South Korea

Public forecast

Using degrees Celsius for public forecast. Weather courtesy of forecast.io.

METAR (pilot weather report)

Closest report is Gimhae International Airport, 12.0 nm (22.3 km) W. Retrieved 2019/07/20 15:00 UTC (14 minutes ago):

RKPK 201500Z 17017G27KT 6000 -RA BKN010 OVC025 24/23 Q1002

TAF (pilot weather forecast)

Closest forecast is Gimhae International Airport, 12.0 nm (22.3 km) W. Retrieved 2019/07/20 12:00 UTC (3 hours ago):

TAF RKPK 201100Z 2012/2118 18010G20KT 4800 -RA BR BKN015 OVC030 TN23/2021Z TX28/2105Z BECMG 2018/2019 21012KT BECMG 2023/2024 21008KT 9999 NSW SCT015 BKN030